sensor_id;sensor_type;location;lat;lon;timestamp;pressure;altitude;pressure_sealevel;temperature;humidity
77165;BME280;66140;50.280;18.660;2023-03-21T05:00:46;99002.81;;;6.95;100.00
77165;BME280;66140;50.280;18.660;2023-03-21T05:03:12;99000.19;;;6.95;100.00
77165;BME280;66140;50.280;18.660;2023-03-21T05:05:44;98993.13;;;6.96;100.00
77165;BME280;66140;50.280;18.660;2023-03-21T05:08:10;98993.38;;;6.91;100.00
77165;BME280;66140;50.280;18.660;2023-03-21T05:10:36;98999.66;;;6.89;100.00
77165;BME280;66140;50.280;18.660;2023-03-21T05:13:02;98991.88;;;6.85;100.00
77165;BME280;66140;50.280;18.660;2023-03-21T05:15:27;98999.41;;;6.93;100.00
77165;BME280;66140;50.280;18.660;2023-03-21T05:17:53;98996.84;;;6.92;100.00
77165;BME280;66140;50.280;18.660;2023-03-21T05:20:19;99007.88;;;7.00;100.00
77165;BME280;66140;50.280;18.660;2023-03-21T05:22:44;99003.63;;;6.97;100.00
77165;BME280;66140;50.280;18.660;2023-03-21T05:25:14;98997.16;;;7.03;100.00
77165;BME280;66140;50.280;18.660;2023-03-21T05:27:42;98997.91;;;7.05;100.00
77165;BME280;66140;50.280;18.660;2023-03-21T05:30:16;99002.13;;;7.09;100.00
77165;BME280;66140;50.280;18.660;2023-03-21T05:32:42;99001.19;;;7.10;100.00
77165;BME280;66140;50.280;18.660;2023-03-21T05:35:08;99009.88;;;7.12;100.00
77165;BME280;66140;50.280;18.660;2023-03-21T05:37:35;99004.78;;;7.09;100.00
77165;BME280;66140;50.280;18.660;2023-03-21T05:40:00;99002.06;;;7.10;100.00
77165;BME280;66140;50.280;18.660;2023-03-21T05:42:26;98998.88;;;7.04;100.00
77165;BME280;66140;50.280;18.660;2023-03-21T05:44:51;99002.88;;;7.11;100.00
77165;BME280;66140;50.280;18.660;2023-03-21T05:47:17;99007.47;;;7.07;100.00
77165;BME280;66140;50.280;18.660;2023-03-21T05:49:43;99001.34;;;7.07;100.00
77165;BME280;66140;50.280;18.660;2023-03-21T05:52:09;99008.66;;;7.02;100.00
77165;BME280;66140;50.280;18.660;2023-03-21T05:54:35;99010.19;;;7.06;100.00
77165;BME280;66140;50.280;18.660;2023-03-21T05:57:01;99025.69;;;7.12;100.00
77165;BME280;66140;50.280;18.660;2023-03-21T05:59:27;99014.41;;;7.10;100.00
77165;BME280;66140;50.280;18.660;2023-03-21T06:01:52;99017.03;;;7.10;100.00
77165;BME280;66140;50.280;18.660;2023-03-21T06:04:18;99028.28;;;7.13;100.00
77165;BME280;66140;50.280;18.660;2023-03-21T06:06:43;99032.53;;;7.16;100.00
77165;BME280;66140;50.280;18.660;2023-03-21T06:09:09;99034.41;;;7.14;100.00
77165;BME280;66140;50.280;18.660;2023-03-21T06:11:36;99025.69;;;7.12;100.00
77165;BME280;66140;50.280;18.660;2023-03-21T06:14:03;99026.00;;;7.06;100.00
77165;BME280;66140;50.280;18.660;2023-03-21T06:16:28;99043.72;;;7.04;100.00
77165;BME280;66140;50.280;18.660;2023-03-21T06:18:54;99029.56;;;7.05;100.00
77165;BME280;66140;50.280;18.660;2023-03-21T06:21:20;99029.50;;;7.06;100.00
77165;BME280;66140;50.280;18.660;2023-03-21T06:23:47;99045.09;;;7.11;100.00
77165;BME280;66140;50.280;18.660;2023-03-21T06:26:16;99048.53;;;7.13;100.00
77165;BME280;66140;50.280;18.660;2023-03-21T06:28:47;99039.06;;;7.09;100.00
77165;BME280;66140;50.280;18.660;2023-03-21T06:31:12;99059.00;;;7.14;100.00
77165;BME280;66140;50.280;18.660;2023-03-21T06:33:38;99047.59;;;7.14;100.00
77165;BME280;66140;50.280;18.660;2023-03-21T06:36:04;99046.66;;;7.15;100.00
77165;BME280;66140;50.280;18.660;2023-03-21T06:38:29;99060.34;;;7.23;100.00
77165;BME280;66140;50.280;18.660;2023-03-21T06:40:56;99044.41;;;7.24;100.00
77165;BME280;66140;50.280;18.660;2023-03-21T06:43:21;99053.03;;;7.28;100.00
77165;BME280;66140;50.280;18.660;2023-03-21T06:45:47;99052.84;;;7.31;100.00
77165;BME280;66140;50.280;18.660;2023-03-21T06:48:12;99044.88;;;7.33;100.00
77165;BME280;66140;50.280;18.660;2023-03-21T06:50:38;99051.00;;;7.33;100.00
77165;BME280;66140;50.280;18.660;2023-03-21T06:53:03;99057.66;;;7.40;100.00
77165;BME280;66140;50.280;18.660;2023-03-21T06:55:29;99061.25;;;7.39;100.00
77165;BME280;66140;50.280;18.660;2023-03-21T06:57:55;99068.69;;;7.48;100.00
77165;BME280;66140;50.280;18.660;2023-03-21T07:00:22;99068.06;;;7.43;100.00
77165;BME280;66140;50.280;18.660;2023-03-21T07:02:49;99065.59;;;7.40;100.00
77165;BME280;66140;50.280;18.660;2023-03-21T07:05:15;99082.22;;;7.42;100.00
77165;BME280;66140;50.280;18.660;2023-03-21T07:07:42;99073.88;;;7.50;100.00
77165;BME280;66140;50.280;18.660;2023-03-21T07:10:08;99081.25;;;7.60;100.00
77165;BME280;66140;50.280;18.660;2023-03-21T07:12:34;99074.19;;;7.61;100.00
77165;BME280;66140;50.280;18.660;2023-03-21T07:15:07;99077.19;;;7.71;100.00
77165;BME280;66140;50.280;18.660;2023-03-21T07:17:33;99079.03;;;7.69;100.00
77165;BME280;66140;50.280;18.660;2023-03-21T07:19:58;99080.63;;;7.73;100.00
77165;BME280;66140;50.280;18.660;2023-03-21T07:22:24;99072.69;;;7.73;100.00
77165;BME280;66140;50.280;18.660;2023-03-21T07:24:50;99080.28;;;7.79;100.00
77165;BME280;66140;50.280;18.660;2023-03-21T07:27:16;99077.72;;;7.77;100.00
77165;BME280;66140;50.280;18.660;2023-03-21T07:29:42;99072.97;;;7.84;100.00
77165;BME280;66140;50.280;18.660;2023-03-21T07:32:11;99083.06;;;7.93;100.00
77165;BME280;66140;50.280;18.660;2023-03-21T07:34:37;99071.47;;;7.95;100.00
77165;BME280;66140;50.280;18.660;2023-03-21T07:37:03;99076.75;;;7.95;100.00
77165;BME280;66140;50.280;18.660;2023-03-21T07:39:29;99083.25;;;8.05;100.00
77165;BME280;66140;50.280;18.660;2023-03-21T07:41:56;99084.13;;;8.06;100.00
77165;BME280;66140;50.280;18.660;2023-03-21T07:44:22;99087.16;;;8.14;100.00
77165;BME280;66140;50.280;18.660;2023-03-21T07:46:48;99080.88;;;8.17;100.00
77165;BME280;66140;50.280;18.660;2023-03-21T07:49:14;99089.25;;;8.25;100.00
77165;BME280;66140;50.280;18.660;2023-03-21T07:51:39;99076.13;;;8.23;100.00
77165;BME280;66140;50.280;18.660;2023-03-21T07:54:05;99091.47;;;8.32;100.00
77165;BME280;66140;50.280;18.660;2023-03-21T07:56:30;99084.81;;;8.25;100.00
77165;BME280;66140;50.280;18.660;2023-03-21T07:58:56;99093.19;;;8.33;100.00
77165;BME280;66140;50.280;18.660;2023-03-21T08:01:21;99089.81;;;8.31;100.00
77165;BME280;66140;50.280;18.660;2023-03-21T08:03:47;99090.06;;;8.42;100.00
77165;BME280;66140;50.280;18.660;2023-03-21T08:06:15;99087.22;;;8.45;100.00
77165;BME280;66140;50.280;18.660;2023-03-21T08:08:41;99101.06;;;8.51;100.00
77165;BME280;66140;50.280;18.660;2023-03-21T08:11:06;99097.66;;;8.49;100.00
77165;BME280;66140;50.280;18.660;2023-03-21T08:13:32;99096.78;;;8.48;100.00
77165;BME280;66140;50.280;18.660;2023-03-21T08:15:58;99092.78;;;8.57;100.00
77165;BME280;66140;50.280;18.660;2023-03-21T08:18:23;99093.19;;;8.65;100.00
77165;BME280;66140;50.280;18.660;2023-03-21T08:20:53;99095.25;;;8.75;100.00
77165;BME280;66140;50.280;18.660;2023-03-21T08:23:18;99095.94;;;8.79;100.00
77165;BME280;66140;50.280;18.660;2023-03-21T08:25:45;99095.00;;;8.80;100.00
77165;BME280;66140;50.280;18.660;2023-03-21T08:28:11;99104.44;;;8.84;99.96
77165;BME280;66140;50.280;18.660;2023-03-21T08:30:36;99100.72;;;8.88;100.00
77165;BME280;66140;50.280;18.660;2023-03-21T08:33:03;99099.16;;;8.84;99.80
77165;BME280;66140;50.280;18.660;2023-03-21T08:35:29;99105.56;;;8.80;98.09
77165;BME280;66140;50.280;18.660;2023-03-21T08:37:55;99095.09;;;8.63;97.51
77165;BME280;66140;50.280;18.660;2023-03-21T08:40:21;99103.69;;;8.66;98.60
77165;BME280;66140;50.280;18.660;2023-03-21T08:42:46;99107.91;;;8.70;97.73
77165;BME280;66140;50.280;18.660;2023-03-21T08:45:14;99114.69;;;8.59;96.83
77165;BME280;66140;50.280;18.660;2023-03-21T08:47:40;99106.09;;;8.55;98.54
77165;BME280;66140;50.280;18.660;2023-03-21T08:50:09;99115.03;;;8.53;97.23
77165;BME280;66140;50.280;18.660;2023-03-21T08:52:35;99112.72;;;8.47;94.92
77165;BME280;66140;50.280;18.660;2023-03-21T08:55:03;99106.00;;;8.41;95.85
77165;BME280;66140;50.280;18.660;2023-03-21T08:57:29;99112.00;;;8.44;97.40
77165;BME280;66140;50.280;18.660;2023-03-21T08:59:54;99108.22;;;8.49;97.54
77165;BME280;66140;50.280;18.660;2023-03-21T09:02:20;99113.19;;;8.55;96.84
77165;BME280;66140;50.280;18.660;2023-03-21T09:04:45;99115.03;;;8.53;96.59
77165;BME280;66140;50.280;18.660;2023-03-21T09:07:11;99120.31;;;8.53;96.88
77165;BME280;66140;50.280;18.660;2023-03-21T09:09:39;99116.22;;;8.47;95.33
77165;BME280;66140;50.280;18.660;2023-03-21T09:12:05;99119.66;;;8.49;95.89
77165;BME280;66140;50.280;18.660;2023-03-21T09:14:31;99131.31;;;8.45;96.71
77165;BME280;66140;50.280;18.660;2023-03-21T09:16:57;99124.25;;;8.45;96.75
77165;BME280;66140;50.280;18.660;2023-03-21T09:19:23;99121.53;;;8.47;96.25
77165;BME280;66140;50.280;18.660;2023-03-21T09:21:48;99132.03;;;8.49;96.96
77165;BME280;66140;50.280;18.660;2023-03-21T09:24:15;99138.75;;;8.38;96.86
77165;BME280;66140;50.280;18.660;2023-03-21T09:26:42;99138.75;;;8.38;96.90
77165;BME280;66140;50.280;18.660;2023-03-21T09:29:08;99130.19;;;8.33;96.62
77165;BME280;66140;50.280;18.660;2023-03-21T09:31:33;99129.13;;;8.20;96.59
77165;BME280;66140;50.280;18.660;2023-03-21T09:33:59;99134.50;;;8.19;97.45
77165;BME280;66140;50.280;18.660;2023-03-21T09:36:25;99145.22;;;8.16;96.79
77165;BME280;66140;50.280;18.660;2023-03-21T09:38:52;99129.84;;;8.06;96.60
77165;BME280;66140;50.280;18.660;2023-03-21T09:49:44;99144.09;;;8.04;96.15
77165;BME280;66140;50.280;18.660;2023-03-21T09:52:29;99149.75;;;8.14;96.23
77165;BME280;66140;50.280;18.660;2023-03-21T09:54:57;99153.88;;;8.19;96.22
77165;BME280;66140;50.280;18.660;2023-03-21T09:57:37;99148.06;;;8.28;97.51
77165;BME280;66140;50.280;18.660;2023-03-21T10:00:12;99137.19;;;8.34;95.61
77165;BME280;66140;50.280;18.660;2023-03-21T10:02:51;99137.81;;;8.39;95.70
77165;BME280;66140;50.280;18.660;2023-03-21T10:05:25;99140.09;;;8.45;96.43
77165;BME280;66140;50.280;18.660;2023-03-21T10:10:33;99137.94;;;8.69;94.30
77165;BME280;66140;50.280;18.660;2023-03-21T10:13:00;99139.13;;;8.64;93.26
77165;BME280;66140;50.280;18.660;2023-03-21T10:15:26;99140.56;;;8.54;93.42
77165;BME280;66140;50.280;18.660;2023-03-21T10:18:06;99136.59;;;8.45;92.96
77165;BME280;66140;50.280;18.660;2023-03-21T10:20:34;99138.44;;;8.44;93.84
77165;BME280;66140;50.280;18.660;2023-03-21T10:23:04;99144.13;;;8.53;94.21
77165;BME280;66140;50.280;18.660;2023-03-21T10:25:33;99140.91;;;8.63;93.62
77165;BME280;66140;50.280;18.660;2023-03-21T10:28:00;99148.84;;;8.79;93.66
77165;BME280;66140;50.280;18.660;2023-03-21T10:30:45;99144.63;;;8.91;90.94
77165;BME280;66140;50.280;18.660;2023-03-21T10:33:28;99143.88;;;9.04;91.29
77165;BME280;66140;50.280;18.660;2023-03-21T10:36:03;99139.56;;;9.17;89.10
77165;BME280;66140;50.280;18.660;2023-03-21T10:38:30;99132.06;;;9.25;88.50
77165;BME280;66140;50.280;18.660;2023-03-21T10:41:11;99137.66;;;9.35;85.29
77165;BME280;66140;50.280;18.660;2023-03-21T10:43:38;99137.16;;;9.29;87.66
77165;BME280;66140;50.280;18.660;2023-03-21T10:46:18;99134.75;;;9.40;88.75
77165;BME280;66140;50.280;18.660;2023-03-21T10:48:52;99131.88;;;9.58;89.76
77165;BME280;66140;50.280;18.660;2023-03-21T10:51:26;99124.78;;;9.59;87.44
77165;BME280;66140;50.280;18.660;2023-03-21T10:53:58;99134.28;;;9.77;88.22
77165;BME280;66140;50.280;18.660;2023-03-21T10:56:28;99135.78;;;9.81;86.76
77165;BME280;66140;50.280;18.660;2023-03-21T10:58:57;99131.84;;;9.88;84.84
77165;BME280;66140;50.280;18.660;2023-03-21T11:01:40;99138.00;;;10.03;84.34
77165;BME280;66140;50.280;18.660;2023-03-21T11:04:15;99133.06;;;9.83;84.78
77165;BME280;66140;50.280;18.660;2023-03-21T11:06:44;99142.63;;;9.85;84.68
77165;BME280;66140;50.280;18.660;2023-03-21T11:09:19;99131.59;;;9.63;83.59
77165;BME280;66140;50.280;18.660;2023-03-21T11:11:55;99135.38;;;9.59;83.07
77165;BME280;66140;50.280;18.660;2023-03-21T11:14:34;99141.22;;;9.50;82.45
77165;BME280;66140;50.280;18.660;2023-03-21T11:17:00;99138.56;;;9.50;85.59
77165;BME280;66140;50.280;18.660;2023-03-21T11:19:34;99135.38;;;9.59;85.64
77165;BME280;66140;50.280;18.660;2023-03-21T11:22:05;99130.81;;;9.61;84.82
77165;BME280;66140;50.280;18.660;2023-03-21T11:24:32;99134.44;;;9.60;85.13
77165;BME280;66140;50.280;18.660;2023-03-21T11:26:59;99135.91;;;9.50;84.31
77165;BME280;66140;50.280;18.660;2023-03-21T11:29:35;99137.28;;;9.41;85.43
77165;BME280;66140;50.280;18.660;2023-03-21T11:34:59;99131.69;;;9.32;85.07
77165;BME280;66140;50.280;18.660;2023-03-21T11:37:33;99130.00;;;9.31;86.12
77165;BME280;66140;50.280;18.660;2023-03-21T11:40:32;99134.78;;;9.24;86.76
77165;BME280;66140;50.280;18.660;2023-03-21T11:42:59;99130.03;;;9.45;86.01
77165;BME280;66140;50.280;18.660;2023-03-21T11:45:26;99116.81;;;9.45;87.26
77165;BME280;66140;50.280;18.660;2023-03-21T11:47:54;99121.25;;;9.44;86.94
77165;BME280;66140;50.280;18.660;2023-03-21T12:04:24;99108.72;;;9.76;84.55
77165;BME280;66140;50.280;18.660;2023-03-21T12:07:08;99112.50;;;9.86;84.24
77165;BME280;66140;50.280;18.660;2023-03-21T12:10:08;99105.34;;;10.02;83.43
77165;BME280;66140;50.280;18.660;2023-03-21T12:15:37;99106.13;;;10.04;83.57
77165;BME280;66140;50.280;18.660;2023-03-21T12:24:02;99096.97;;;9.80;83.58
77165;BME280;66140;50.280;18.660;2023-03-21T12:26:39;99095.41;;;9.78;85.17
77165;BME280;66140;50.280;18.660;2023-03-21T12:31:52;99096.41;;;9.75;83.93
77165;BME280;66140;50.280;18.660;2023-03-21T12:34:43;99092.25;;;9.71;84.01
77165;BME280;66140;50.280;18.660;2023-03-21T12:46:11;99087.72;;;9.87;84.82
77165;BME280;66140;50.280;18.660;2023-03-21T12:51:10;99072.97;;;9.83;82.95
77165;BME280;66140;50.280;18.660;2023-03-21T12:53:54;99078.06;;;10.00;83.52
77165;BME280;66140;50.280;18.660;2023-03-21T12:56:44;99072.94;;;10.12;82.21
77165;BME280;66140;50.280;18.660;2023-03-21T12:59:19;99069.13;;;10.17;81.12
77165;BME280;66140;50.280;18.660;2023-03-21T13:01:49;99068.81;;;10.22;81.65
77165;BME280;66140;50.280;18.660;2023-03-21T13:04:32;99059.69;;;10.12;80.31
77165;BME280;66140;50.280;18.660;2023-03-21T13:07:02;99062.56;;;10.23;81.08
77165;BME280;66140;50.280;18.660;2023-03-21T13:09:36;99061.13;;;10.31;80.99
77165;BME280;66140;50.280;18.660;2023-03-21T13:14:55;99057.22;;;10.51;80.03
77165;BME280;66140;50.280;18.660;2023-03-21T13:17:31;99043.47;;;10.44;79.95
77165;BME280;66140;50.280;18.660;2023-03-21T13:20:12;99055.72;;;10.47;79.88
77165;BME280;66140;50.280;18.660;2023-03-21T13:22:40;99047.19;;;10.42;79.75
77165;BME280;66140;50.280;18.660;2023-03-21T13:25:24;99043.88;;;10.38;79.20
77165;BME280;66140;50.280;18.660;2023-03-21T13:27:59;99048.22;;;10.39;80.68
77165;BME280;66140;50.280;18.660;2023-03-21T13:30:29;99047.66;;;10.49;79.81
77165;BME280;66140;50.280;18.660;2023-03-21T13:33:28;99046.19;;;10.57;78.79
77165;BME280;66140;50.280;18.660;2023-03-21T13:36:15;99041.97;;;10.55;78.64
77165;BME280;66140;50.280;18.660;2023-03-21T13:38:48;99043.00;;;10.52;78.57
77165;BME280;66140;50.280;18.660;2023-03-21T13:41:21;99036.59;;;10.42;79.14
77165;BME280;66140;50.280;18.660;2023-03-21T13:48:58;99045.34;;;10.57;77.88
77165;BME280;66140;50.280;18.660;2023-03-21T13:54:00;99050.06;;;10.66;78.65
77165;BME280;66140;50.280;18.660;2023-03-21T13:56:26;99036.75;;;10.53;79.34
77165;BME280;66140;50.280;18.660;2023-03-21T13:58:56;99029.38;;;10.44;78.47
77165;BME280;66140;50.280;18.660;2023-03-21T14:01:40;99029.13;;;10.34;78.04
77165;BME280;66140;50.280;18.660;2023-03-21T14:04:18;99026.19;;;10.25;79.40
77165;BME280;66140;50.280;18.660;2023-03-21T14:06:57;99032.06;;;10.30;79.00
77165;BME280;66140;50.280;18.660;2023-03-21T14:09:53;99028.09;;;10.37;78.72
77165;BME280;66140;50.280;18.660;2023-03-21T14:12:21;99020.28;;;10.48;76.80
77165;BME280;66140;50.280;18.660;2023-03-21T14:14:58;99025.56;;;10.62;76.16
77165;BME280;66140;50.280;18.660;2023-03-21T14:17:31;99019.66;;;10.57;76.99
77165;BME280;66140;50.280;18.660;2023-03-21T14:20:12;99019.88;;;10.54;76.78
77165;BME280;66140;50.280;18.660;2023-03-21T14:22:39;99026.53;;;10.47;76.87
77165;BME280;66140;50.280;18.660;2023-03-21T14:25:10;99023.34;;;10.28;77.34
77165;BME280;66140;50.280;18.660;2023-03-21T14:27:38;99018.97;;;10.13;78.46
77165;BME280;66140;50.280;18.660;2023-03-21T14:30:09;99020.13;;;10.09;79.15
77165;BME280;66140;50.280;18.660;2023-03-21T14:32:36;99027.88;;;10.12;79.54
77165;BME280;66140;50.280;18.660;2023-03-21T14:35:02;99021.56;;;10.00;78.75
77165;BME280;66140;50.280;18.660;2023-03-21T14:37:36;99014.56;;;9.85;78.85
77165;BME280;66140;50.280;18.660;2023-03-21T14:40:06;99011.16;;;9.83;79.68
77165;BME280;66140;50.280;18.660;2023-03-21T14:42:37;99018.63;;;9.76;79.73
77165;BME280;66140;50.280;18.660;2023-03-21T14:45:26;99005.94;;;9.67;79.97
77165;BME280;66140;50.280;18.660;2023-03-21T14:48:04;99016.38;;;9.70;80.08
77165;BME280;66140;50.280;18.660;2023-03-21T14:50:40;99021.66;;;9.70;79.76
77165;BME280;66140;50.280;18.660;2023-03-21T14:53:16;99019.03;;;9.70;79.51
77165;BME280;66140;50.280;18.660;2023-03-21T14:55:46;99019.41;;;9.64;79.90
77165;BME280;66140;50.280;18.660;2023-03-21T14:58:15;99014.38;;;9.59;80.25
77165;BME280;66140;50.280;18.660;2023-03-21T15:00:47;99008.41;;;9.56;81.23
77165;BME280;66140;50.280;18.660;2023-03-21T15:03:16;99020.72;;;9.57;81.19
77165;BME280;66140;50.280;18.660;2023-03-21T15:05:45;99018.25;;;9.54;80.51
77165;BME280;66140;50.280;18.660;2023-03-21T15:10:37;99013.81;;;9.40;83.46
77165;BME280;66140;50.280;18.660;2023-03-21T15:13:27;99020.28;;;9.35;82.21
77165;BME280;66140;50.280;18.660;2023-03-21T15:15:54;99019.97;;;9.41;83.00
77165;BME280;66140;50.280;18.660;2023-03-21T15:18:28;99018.97;;;9.42;82.09
77165;BME280;66140;50.280;18.660;2023-03-21T15:20:56;99016.53;;;9.39;82.00
77165;BME280;66140;50.280;18.660;2023-03-21T15:23:25;99012.25;;;9.36;82.31
77165;BME280;66140;50.280;18.660;2023-03-21T15:25:51;98995.16;;;9.28;82.25
77165;BME280;66140;50.280;18.660;2023-03-21T15:28:17;99008.19;;;9.31;81.11
77165;BME280;66140;50.280;18.660;2023-03-21T15:30:48;98998.19;;;9.21;82.27
77165;BME280;66140;50.280;18.660;2023-03-21T15:33:15;98999.19;;;9.19;82.14
77165;BME280;66140;50.280;18.660;2023-03-21T15:35:48;99002.50;;;9.22;82.91
77165;BME280;66140;50.280;18.660;2023-03-21T15:38:32;98998.91;;;9.23;82.67
77165;BME280;66140;50.280;18.660;2023-03-21T15:52:01;98993.06;;;9.18;85.89
77165;BME280;66140;50.280;18.660;2023-03-21T15:54:33;98982.63;;;9.15;86.87
77165;BME280;66140;50.280;18.660;2023-03-21T15:57:05;98990.25;;;9.21;87.14
77165;BME280;66140;50.280;18.660;2023-03-21T15:59:44;98989.63;;;9.16;87.68
77165;BME280;66140;50.280;18.660;2023-03-21T16:02:20;98975.66;;;9.14;87.85
77165;BME280;66140;50.280;18.660;2023-03-21T16:04:58;98987.09;;;9.15;88.33
77165;BME280;66140;50.280;18.660;2023-03-21T16:07:25;98990.94;;;9.09;87.82
77165;BME280;66140;50.280;18.660;2023-03-21T16:09:57;98988.66;;;9.03;88.38
77165;BME280;66140;50.280;18.660;2023-03-21T16:12:22;98992.94;;;9.06;88.61
77165;BME280;66140;50.280;18.660;2023-03-21T16:14:48;98993.94;;;9.03;89.41
77165;BME280;66140;50.280;18.660;2023-03-21T16:17:32;98987.56;;;9.07;89.41
77165;BME280;66140;50.280;18.660;2023-03-21T16:19:59;98981.56;;;9.04;88.56
77165;BME280;66140;50.280;18.660;2023-03-21T16:22:25;98990.19;;;9.07;88.66
77165;BME280;66140;50.280;18.660;2023-03-21T16:24:50;98997.56;;;9.02;88.58
77165;BME280;66140;50.280;18.660;2023-03-21T16:27:17;98989.22;;;8.94;88.97
77165;BME280;66140;50.280;18.660;2023-03-21T16:29:43;99006.81;;;8.95;89.98
77165;BME280;66140;50.280;18.660;2023-03-21T16:32:14;98995.81;;;8.87;89.24
77165;BME280;66140;50.280;18.660;2023-03-21T16:34:39;99000.53;;;8.82;89.86
77165;BME280;66140;50.280;18.660;2023-03-21T16:37:09;98998.81;;;8.81;89.63
77165;BME280;66140;50.280;18.660;2023-03-21T16:39:35;99006.34;;;8.73;89.92
77165;BME280;66140;50.280;18.660;2023-03-21T16:42:00;99003.09;;;8.68;90.56
77165;BME280;66140;50.280;18.660;2023-03-21T16:44:26;99011.97;;;8.67;90.63
77165;BME280;66140;50.280;18.660;2023-03-21T16:46:52;99006.69;;;8.67;90.24
77165;BME280;66140;50.280;18.660;2023-03-21T16:49:25;99005.16;;;8.63;90.55
77165;BME280;66140;50.280;18.660;2023-03-21T16:51:53;99005.34;;;8.60;90.03
77165;BME280;66140;50.280;18.660;2023-03-21T16:54:19;99015.06;;;8.59;90.73
77165;BME280;66140;50.280;18.660;2023-03-21T16:56:50;99016.69;;;8.62;91.08
77165;BME280;66140;50.280;18.660;2023-03-21T16:59:16;99016.97;;;8.57;90.41
77165;BME280;66140;50.280;18.660;2023-03-21T17:01:42;99023.25;;;8.55;90.43
77165;BME280;66140;50.280;18.660;2023-03-21T17:04:10;99028.72;;;8.52;90.94
77165;BME280;66140;50.280;18.660;2023-03-21T17:06:41;99028.03;;;8.48;91.11
77165;BME280;66140;50.280;18.660;2023-03-21T17:09:09;99025.56;;;8.45;90.91
77165;BME280;66140;50.280;18.660;2023-03-21T17:11:36;99022.25;;;8.41;90.97
77165;BME280;66140;50.280;18.660;2023-03-21T17:14:06;99026.88;;;8.38;91.38
77165;BME280;66140;50.280;18.660;2023-03-21T17:16:32;99027.09;;;8.33;91.86
77165;BME280;66140;50.280;18.660;2023-03-21T17:18:57;99036.59;;;8.37;92.25
77165;BME280;66140;50.280;18.660;2023-03-21T17:21:27;99024.66;;;8.30;91.79
77165;BME280;66140;50.280;18.660;2023-03-21T17:23:53;99036.75;;;8.34;91.94
77165;BME280;66140;50.280;18.660;2023-03-21T17:26:27;99039.63;;;8.30;91.97
77165;BME280;66140;50.280;18.660;2023-03-21T17:28:54;99043.16;;;8.30;92.22
77165;BME280;66140;50.280;18.660;2023-03-21T17:31:23;99041.47;;;8.28;91.99
77165;BME280;66140;50.280;18.660;2023-03-21T17:33:48;99041.38;;;8.31;92.24
77165;BME280;66140;50.280;18.660;2023-03-21T17:36:20;99044.06;;;8.29;92.36
77165;BME280;66140;50.280;18.660;2023-03-21T17:38:48;99039.78;;;8.27;92.31
77165;BME280;66140;50.280;18.660;2023-03-21T17:41:17;99051.97;;;8.29;92.23
77165;BME280;66140;50.280;18.660;2023-03-21T17:43:43;99044.47;;;8.22;92.23
77165;BME280;66140;50.280;18.660;2023-03-21T17:46:13;99043.63;;;8.21;92.96
77165;BME280;66140;50.280;18.660;2023-03-21T17:48:39;99047.31;;;8.19;92.58
77165;BME280;66140;50.280;18.660;2023-03-21T17:51:05;99034.31;;;8.14;92.62
77165;BME280;66140;50.280;18.660;2023-03-21T17:53:31;99040.47;;;8.15;92.70
77165;BME280;66140;50.280;18.660;2023-03-21T17:55:56;99036.88;;;8.16;93.05
77165;BME280;66140;50.280;18.660;2023-03-21T17:58:22;99045.59;;;8.18;92.74
77165;BME280;66140;50.280;18.660;2023-03-21T18:00:48;99034.94;;;8.19;92.98
77165;BME280;66140;50.280;18.660;2023-03-21T18:03:13;99048.97;;;8.20;93.25
77165;BME280;66140;50.280;18.660;2023-03-21T18:05:39;99045.50;;;8.19;93.08
77165;BME280;66140;50.280;18.660;2023-03-21T18:08:09;99038.50;;;8.18;92.53
77165;BME280;66140;50.280;18.660;2023-03-21T18:10:34;99035.88;;;8.18;92.98
77165;BME280;66140;50.280;18.660;2023-03-21T18:13:00;99038.75;;;8.14;92.40
77165;BME280;66140;50.280;18.660;2023-03-21T18:15:26;99048.16;;;8.19;92.58
77165;BME280;66140;50.280;18.660;2023-03-21T18:17:52;99048.97;;;8.20;93.08
77165;BME280;66140;50.280;18.660;2023-03-21T18:20:21;99051.38;;;8.24;92.16
77165;BME280;66140;50.280;18.660;2023-03-21T18:22:51;99041.16;;;8.18;92.53
77165;BME280;66140;50.280;18.660;2023-03-21T18:25:37;99042.34;;;8.13;92.55
77165;BME280;66140;50.280;18.660;2023-03-21T18:28:06;99039.94;;;8.08;92.93
77165;BME280;66140;50.280;18.660;2023-03-21T18:30:43;99053.16;;;8.08;93.56
77165;BME280;66140;50.280;18.660;2023-03-21T18:33:11;99050.09;;;8.00;93.98
77165;BME280;66140;50.280;18.660;2023-03-21T18:35:37;99047.28;;;8.03;94.01
77165;BME280;66140;50.280;18.660;2023-03-21T18:38:03;99046.50;;;8.01;93.79
77165;BME280;66140;50.280;18.660;2023-03-21T18:40:28;99050.84;;;8.02;93.92
77165;BME280;66140;50.280;18.660;2023-03-21T18:42:54;99053.34;;;8.05;93.65
77165;BME280;66140;50.280;18.660;2023-03-21T18:45:21;99056.72;;;8.07;93.49
77165;BME280;66140;50.280;18.660;2023-03-21T18:47:58;99053.47;;;8.02;93.63
77165;BME280;66140;50.280;18.660;2023-03-21T18:50:27;99047.44;;;8.00;94.55
77165;BME280;66140;50.280;18.660;2023-03-21T18:52:52;99044.81;;;8.00;93.39
77165;BME280;66140;50.280;18.660;2023-03-21T18:55:18;99044.88;;;7.98;94.42
77165;BME280;66140;50.280;18.660;2023-03-21T18:57:46;99054.59;;;7.98;94.35
77165;BME280;66140;50.280;18.660;2023-03-21T19:00:13;99055.53;;;7.97;94.37
77165;BME280;66140;50.280;18.660;2023-03-21T19:02:44;99060.03;;;7.95;94.39
77165;BME280;66140;50.280;18.660;2023-03-21T19:05:10;99060.13;;;7.93;95.07
77165;BME280;66140;50.280;18.660;2023-03-21T19:07:36;99060.22;;;7.92;94.58
77165;BME280;66140;50.280;18.660;2023-03-21T19:10:03;99065.13;;;7.82;95.28
77165;BME280;66140;50.280;18.660;2023-03-21T19:12:28;99064.13;;;7.85;95.06
77165;BME280;66140;50.280;18.660;2023-03-21T19:14:54;99063.50;;;7.80;95.18
77165;BME280;66140;50.280;18.660;2023-03-21T19:17:20;99070.31;;;7.84;96.21
77165;BME280;66140;50.280;18.660;2023-03-21T19:19:48;99067.88;;;7.81;95.79
77165;BME280;66140;50.280;18.660;2023-03-21T19:22:14;99067.88;;;7.81;96.07